Time;durP1;ratioP1;P1;durP2;ratioP2;P2;SDS_P1;SDS_P2;PMS_P1;PMS_P2;Temp;Humidity;BMP_temperature;BMP_pressure;BME280_temperature;BME280_humidity;BME280_pressure;Samples;Min_cycle;Max_cycle;Signal;HPM_P1;HPM_P2
2022/03/08 00:01:14;;;;;;;;;;;;;;;9.20;27.76;99995.00;4488522;31;36703;-64
2022/03/08 00:03:43;;;;;;;;;;;;;;;8.93;27.60;100011.00;4487392;31;34164;-66
2022/03/08 00:06:13;;;;;;;;;;;;;;;8.98;27.47;99999.03;4485727;31;33034;-64
2022/03/08 00:08:43;;;;;;;;;;;;;;;8.70;27.98;100007.06;4475018;31;34301;-64
2022/03/08 00:11:12;;;;;;;;;;;;;;;9.07;27.05;99998.44;4474464;31;33489;-64
2022/03/08 00:13:40;;;;;;;;;;;;;;;9.08;26.82;99988.63;4483067;31;35527;-65
2022/03/08 00:16:09;;;;;;;;;;;;;;;8.75;28.21;99999.66;4485693;31;35157;-64
2022/03/08 00:18:38;;;;;;;;;;;;;;;8.90;27.27;100000.50;4483850;31;32882;-64
2022/03/08 00:21:07;;;;;;;;;;;;;;;8.49;28.50;100004.81;4483726;31;32885;-64
2022/03/08 00:23:37;;;;;;;;;;;;;;;8.61;27.84;100006.72;4481513;31;34067;-64
2022/03/08 00:26:06;;;;;;;;;;;;;;;8.99;27.66;99998.09;4485839;31;33886;-66
2022/03/08 00:28:35;;;;;;;;;;;;;;;8.96;27.84;100000.97;4481495;31;33455;-64
2022/03/08 00:31:06;;;;;;;;;;;;;;;8.92;27.87;100007.44;4482683;31;33988;-64
2022/03/08 00:33:34;;;;;;;;;;;;;;;8.98;27.47;100003.53;4491533;31;33644;-63
2022/03/08 00:36:04;;;;;;;;;;;;;;;8.43;29.52;100004.34;4488384;31;34227;-64
2022/03/08 00:38:34;;;;;;;;;;;;;;;9.02;27.49;100000.56;4484438;31;34438;-63
2022/03/08 00:41:04;;;;;;;;;;;;;;;8.95;27.44;99996.56;4486974;31;33769;-65
2022/03/08 00:43:33;;;;;;;;;;;;;;;8.93;27.60;99995.81;4484130;31;33051;-64
2022/03/08 00:46:03;;;;;;;;;;;;;;;8.79;27.91;99995.81;4490183;31;34418;-66
2022/03/08 00:48:35;;;;;;;;;;;;;;;8.79;28.16;99995.81;4492683;31;33399;-67
2022/03/08 00:51:04;;;;;;;;;;;;;;;8.88;27.79;99981.06;4486505;31;34342;-64
2022/03/08 00:53:32;;;;;;;;;;;;;;;8.81;28.30;99991.25;4483896;31;32946;-67
2022/03/08 00:56:04;;;;;;;;;;;;;;;8.66;28.54;99990.41;4485023;31;35051;-65
2022/03/08 00:58:34;;;;;;;;;;;;;;;8.77;28.46;99992.41;4485255;31;32182;-63
2022/03/08 01:01:03;;;;;;;;;;;;;;;8.79;28.42;99980.66;4489205;31;33143;-65
2022/03/08 01:03:32;;;;;;;;;;;;;;;8.75;28.35;99984.50;4485757;31;32969;-64
2022/03/08 01:06:00;;;;;;;;;;;;;;;8.78;28.55;99983.44;4485747;31;34246;-64
2022/03/08 01:08:30;;;;;;;;;;;;;;;8.23;29.23;99986.88;4477556;31;32440;-64
2022/03/08 01:10:59;;;;;;;;;;;;;;;8.39;29.21;99990.34;4490260;31;31964;-66
2022/03/08 01:13:27;;;;;;;;;;;;;;;8.59;28.94;99976.59;4487568;31;34186;-64
2022/03/08 01:15:56;;;;;;;;;;;;;;;8.49;29.28;99978.13;4487563;31;33940;-64
2022/03/08 01:18:26;;;;;;;;;;;;;;;8.48;28.97;99978.25;4490449;31;33344;-64
2022/03/08 01:20:54;;;;;;;;;;;;;;;8.52;29.12;99980.63;4487245;31;32803;-65
2022/03/08 01:23:23;;;;;;;;;;;;;;;8.40;29.63;99978.69;4485186;31;33885;-64
2022/03/08 01:25:52;;;;;;;;;;;;;;;8.23;30.05;99986.88;4486756;31;33968;-64
2022/03/08 01:28:24;;;;;;;;;;;;;;;8.43;29.64;99981.19;4485806;31;33304;-64
2022/03/08 01:30:54;;;;;;;;;;;;;;;8.62;28.93;99979.06;4485310;31;34824;-64
2022/03/08 01:33:23;;;;;;;;;;;;;;;8.72;28.83;99976.69;4484736;31;35222;-67
2022/03/08 01:35:52;;;;;;;;;;;;;;;8.43;29.44;99980.31;4482551;31;33693;-65
2022/03/08 01:38:21;;;;;;;;;;;;;;;8.15;29.65;99980.19;4487074;31;33491;-64
2022/03/08 01:40:50;;;;;;;;;;;;;;;8.00;29.94;99983.78;4483356;31;34071;-64
2022/03/08 01:43:20;;;;;;;;;;;;;;;7.65;31.41;99991.22;4489117;31;33682;-64
2022/03/08 01:45:50;;;;;;;;;;;;;;;8.15;30.06;99988.19;4485864;31;32944;-64
2022/03/08 01:48:19;;;;;;;;;;;;;;;8.37;29.31;99986.84;4487080;31;33005;-64
2022/03/08 01:50:48;;;;;;;;;;;;;;;8.16;29.84;99979.25;4484142;31;33775;-64
2022/03/08 01:53:18;;;;;;;;;;;;;;;8.18;29.65;99984.47;4486568;31;32693;-64
2022/03/08 01:55:46;;;;;;;;;;;;;;;8.15;29.88;99984.66;4473513;31;33173;-64
2022/03/08 01:58:17;;;;;;;;;;;;;;;8.11;30.17;99985.78;4490356;31;31563;-64
2022/03/08 02:00:45;;;;;;;;;;;;;;;8.03;30.41;99978.28;4476379;31;32839;-64
2022/03/08 02:03:14;;;;;;;;;;;;;;;7.77;30.95;99979.84;4491668;31;34574;-66
2022/03/08 02:05:43;;;;;;;;;;;;;;;7.71;30.27;99972.22;4486867;31;34011;-66
2022/03/08 02:08:13;;;;;;;;;;;;;;;7.73;30.37;99974.75;4485247;31;32154;-64
2022/03/08 02:10:41;;;;;;;;;;;;;;;7.61;30.60;99982.53;4473306;31;32971;-67
2022/03/08 02:13:10;;;;;;;;;;;;;;;7.55;31.03;99976.72;4489126;31;34625;-64
2022/03/08 02:15:38;;;;;;;;;;;;;;;7.45;31.56;99982.59;4486685;31;33912;-66
2022/03/08 02:18:08;;;;;;;;;;;;;;;7.44;31.36;99975.53;4485190;31;33172;-64
2022/03/08 02:20:37;;;;;;;;;;;;;;;7.60;31.17;99979.97;4485200;31;34185;-65
2022/03/08 02:23:08;;;;;;;;;;;;;;;7.86;30.29;99978.41;4489310;31;33064;-64
2022/03/08 02:25:36;;;;;;;;;;;;;;;7.88;30.23;99972.03;4485447;31;33357;-64
2022/03/08 02:28:04;;;;;;;;;;;;;;;7.86;30.58;99975.75;4487994;31;33701;-63
2022/03/08 02:30:34;;;;;;;;;;;;;;;7.49;32.34;99983.25;4470911;31;33421;-64
2022/03/08 02:33:04;;;;;;;;;;;;;;;7.88;31.21;99980.03;4487839;31;34127;-63
2022/03/08 02:35:32;;;;;;;;;;;;;;;7.78;31.61;99980.69;4484670;31;33263;-64
2022/03/08 02:38:01;;;;;;;;;;;;;;;7.82;31.21;99976.88;4481327;31;33361;-64
2022/03/08 02:40:36;;;;;;;;;;;;;;;7.67;31.65;99974.19;4491672;31;34122;-66
2022/03/08 02:43:07;;;;;;;;;;;;;;;8.09;30.48;99975.25;4486351;31;34326;-64
2022/03/08 02:45:35;;;;;;;;;;;;;;;8.03;30.41;99975.59;4484080;31;32362;-64
2022/03/08 02:48:04;;;;;;;;;;;;;;;7.85;30.67;99982.88;4487140;31;33474;-64
2022/03/08 02:50:34;;;;;;;;;;;;;;;7.74;30.92;99976.47;4473639;31;32717;-65
2022/03/08 02:53:04;;;;;;;;;;;;;;;7.85;30.53;99982.88;4484563;31;34314;-64
2022/03/08 02:55:34;;;;;;;;;;;;;;;7.58;30.86;99981.88;4485909;31;33234;-63
2022/03/08 02:58:04;;;;;;;;;;;;;;;7.42;31.18;99974.78;4484362;31;31811;-64
2022/03/08 03:00:34;;;;;;;;;;;;;;;7.31;31.75;99982.50;4484672;31;33151;-63
2022/03/08 03:03:04;;;;;;;;;;;;;;;7.36;32.01;99982.25;4486358;31;34094;-64
2022/03/08 03:05:34;;;;;;;;;;;;;;;7.37;31.55;99987.47;4486405;31;35195;-63
2022/03/08 03:08:02;;;;;;;;;;;;;;;7.59;31.07;99981.78;4479841;31;34308;-64
2022/03/08 03:10:33;;;;;;;;;;;;;;;7.61;31.29;99987.88;4489039;31;35112;-64
2022/03/08 03:13:02;;;;;;;;;;;;;;;7.62;31.06;99984.25;4476617;31;33747;-64
2022/03/08 03:15:31;;;;;;;;;;;;;;;7.69;31.13;99984.75;4476597;31;33919;-64
2022/03/08 03:18:00;;;;;;;;;;;;;;;7.66;31.22;99984.94;4481306;31;32321;-64
2022/03/08 03:20:29;;;;;;;;;;;;;;;7.58;31.17;99988.06;4480306;31;34017;-64
2022/03/08 03:22:58;;;;;;;;;;;;;;;7.63;31.43;99991.28;4482317;31;34244;-66
2022/03/08 03:25:28;;;;;;;;;;;;;;;7.59;31.61;99988.91;4479617;31;33430;-64
2022/03/08 03:27:55;;;;;;;;;;;;;;;7.47;32.51;99993.13;4483236;31;32739;-65
2022/03/08 03:30:25;;;;;;;;;;;;;;;7.65;31.25;99989.41;4481106;31;34291;-64
2022/03/08 03:32:54;;;;;;;;;;;;;;;7.69;31.16;99990.06;4479340;31;33295;-66
2022/03/08 03:35:22;;;;;;;;;;;;;;;7.27;32.70;99998.75;4482273;31;35248;-66
2022/03/08 03:37:53;;;;;;;;;;;;;;;7.48;32.07;99992.22;4481317;31;32452;-63
2022/03/08 03:40:22;;;;;;;;;;;;;;;7.33;32.36;99996.59;4481734;31;33142;-63
2022/03/08 03:42:51;;;;;;;;;;;;;;;7.72;31.25;99991.72;4480434;31;33888;-63
2022/03/08 03:45:19;;;;;;;;;;;;;;;7.03;32.47;99999.22;4480521;31;33376;-63
2022/03/08 03:47:49;;;;;;;;;;;;;;;7.38;32.86;99996.31;4482569;31;32622;-64
2022/03/08 03:50:19;;;;;;;;;;;;;;;7.49;32.52;100001.06;4477144;31;35562;-63
2022/03/08 03:52:48;;;;;;;;;;;;;;;7.23;32.63;99996.28;4479027;31;34135;-63
2022/03/08 03:55:18;;;;;;;;;;;;;;;6.95;33.13;99993.44;4479250;31;32954;-63
2022/03/08 03:57:47;;;;;;;;;;;;;;;6.83;33.95;100002.09;4482290;31;31385;-64
2022/03/08 04:00:19;;;;;;;;;;;;;;;7.24;32.54;99990.00;4483186;31;34107;-64
2022/03/08 04:02:56;;;;;;;;;;;;;;;6.91;33.44;99989.25;4482146;31;32983;-64
2022/03/08 04:05:25;;;;;;;;;;;;;;;7.07;33.25;99986.59;4481804;31;33244;-64
2022/03/08 04:07:53;;;;;;;;;;;;;;;6.95;33.16;99986.31;4485566;31;33653;-63
2022/03/08 04:10:22;;;;;;;;;;;;;;;7.05;32.88;99986.66;4483922;31;35402;-63
2022/03/08 04:12:50;;;;;;;;;;;;;;;7.22;32.33;99975.94;4483380;31;34608;-64
2022/03/08 04:15:19;;;;;;;;;;;;;;;6.62;33.50;99982.88;4482308;31;34156;-63
2022/03/08 04:17:48;;;;;;;;;;;;;;;7.13;32.62;99979.09;4486305;31;32267;-63
2022/03/08 04:20:16;;;;;;;;;;;;;;;7.20;32.46;99974.28;4485457;31;32960;-63
2022/03/08 04:22:45;;;;;;;;;;;;;;;7.26;32.29;99986.41;4488706;31;34514;-64
2022/03/08 04:25:14;;;;;;;;;;;;;;;7.08;33.12;99988.28;4489246;31;32909;-64
2022/03/08 04:27:42;;;;;;;;;;;;;;;7.10;32.86;99997.91;4486482;31;32486;-63
2022/03/08 04:30:11;;;;;;;;;;;;;;;7.14;32.46;99995.94;4483965;31;34225;-64
2022/03/08 04:32:39;;;;;;;;;;;;;;;7.36;32.33;99998.25;4483763;31;35491;-63
2022/03/08 04:35:07;;;;;;;;;;;;;;;6.68;34.53;100003.81;4489617;31;32775;-63
2022/03/08 04:37:36;;;;;;;;;;;;;;;6.94;33.99;99997.91;4484449;31;33454;-63
2022/03/08 04:40:05;;;;;;;;;;;;;;;7.08;33.22;99993.63;4487879;31;34193;-63
2022/03/08 04:42:33;;;;;;;;;;;;;;;7.41;32.61;99986.34;4485930;31;34020;-63
2022/03/08 04:45:01;;;;;;;;;;;;;;;7.59;32.02;99991.56;4483313;31;34913;-65
2022/03/08 04:47:35;;;;;;;;;;;;;;;7.27;32.94;99988.09;4486403;31;34242;-66
2022/03/08 04:50:07;;;;;;;;;;;;;;;7.36;32.69;99984.91;4488101;31;34637;-65
2022/03/08 04:52:37;;;;;;;;;;;;;;;6.73;34.14;99997.28;4487743;31;33879;-64
2022/03/08 04:55:05;;;;;;;;;;;;;;;6.95;34.10;99991.63;4485927;31;34539;-65
2022/03/08 04:57:33;;;;;;;;;;;;;;;6.97;33.96;99991.56;4487172;31;31988;-65
2022/03/08 05:00:06;;;;;;;;;;;;;;;6.76;34.26;99985.63;4486237;31;34276;-67
2022/03/08 05:02:34;;;;;;;;;;;;;;;7.23;33.28;99990.09;4485803;31;33100;-65
2022/03/08 05:05:02;;;;;;;;;;;;;;;7.19;33.71;99992.06;4484569;31;34452;-66
2022/03/08 05:07:31;;;;;;;;;;;;;;;7.21;33.79;99990.16;4487527;31;33410;-63
2022/03/08 05:09:59;;;;;;;;;;;;;;;7.11;34.08;99988.97;4485381;31;32834;-64
2022/03/08 05:12:27;;;;;;;;;;;;;;;7.19;33.57;99981.44;4488303;31;34230;-64
2022/03/08 05:14:55;;;;;;;;;;;;;;;7.58;32.39;99985.37;4484836;31;33614;-65
2022/03/08 05:17:24;;;;;;;;;;;;;;;7.54;32.63;99986.50;4485121;31;33492;-65
2022/03/08 05:19:52;;;;;;;;;;;;;;;7.69;32.29;99982.09;4484719;31;34909;-67
2022/03/08 05:22:22;;;;;;;;;;;;;;;7.77;31.88;99978.94;4482673;31;34430;-65
2022/03/08 05:24:50;;;;;;;;;;;;;;;7.52;32.66;99979.56;4482579;31;35499;-65
2022/03/08 05:27:22;;;;;;;;;;;;;;;7.69;32.27;99982.09;4488563;31;32830;-67
2022/03/08 05:30:05;;;;;;;;;;;;;;;7.52;32.53;99977.75;4483727;31;32792;-66
2022/03/08 05:32:49;;;;;;;;;;;;;;;7.53;32.67;99975.94;4488302;31;33121;-68
2022/03/08 05:35:24;;;;;;;;;;;;;;;7.54;32.31;99982.97;4486690;31;33732;-69
2022/03/08 05:38:04;;;;;;;;;;;;;;;7.42;32.61;99987.22;4485849;31;32515;-65
2022/03/08 05:40:48;;;;;;;;;;;;;;;7.28;32.68;99988.00;4486663;31;33004;-67
2022/03/08 05:43:25;;;;;;;;;;;;;;;7.17;33.18;99993.09;4487026;31;32877;-65
2022/03/08 05:46:00;;;;;;;;;;;;;;;7.37;32.68;99990.12;4485606;31;33947;-64
2022/03/08 05:48:40;;;;;;;;;;;;;;;7.26;33.00;99992.59;4483145;31;34638;-65
2022/03/08 05:51:14;;;;;;;;;;;;;;;7.17;33.47;99996.62;4485410;31;33105;-64
2022/03/08 05:53:56;;;;;;;;;;;;;;;7.06;33.57;99998.16;4484506;31;33148;-64
2022/03/08 05:56:31;;;;;;;;;;;;;;;7.13;33.48;99992.41;4486738;31;34330;-66
2022/03/08 05:59:07;;;;;;;;;;;;;;;7.19;33.26;99993.84;4484146;31;31999;-63
2022/03/08 06:01:45;;;;;;;;;;;;;;;7.57;32.65;99993.47;4483926;31;34006;-65
2022/03/08 06:04:17;;;;;;;;;;;;;;;7.49;32.36;99999.25;4488799;31;34405;-64
2022/03/08 06:06:50;;;;;;;;;;;;;;;7.33;33.31;99990.41;4489262;31;32981;-66
2022/03/08 06:09:23;;;;;;;;;;;;;;;7.58;32.25;99993.37;4483816;31;32054;-65
2022/03/08 06:12:00;;;;;;;;;;;;;;;7.58;32.67;100000.53;4488868;31;32889;-66
2022/03/08 06:14:44;;;;;;;;;;;;;;;7.60;32.92;100007.44;4488649;31;34172;-65
2022/03/08 06:17:24;;;;;;;;;;;;;;;7.61;32.96;99998.53;4489860;31;33703;-65
2022/03/08 06:20:00;;;;;;;;;;;;;;;7.60;33.65;100003.94;4489191;31;32465;-65
2022/03/08 06:22:39;;;;;;;;;;;;;;;7.61;33.81;100006.53;4482892;31;34977;-65
2022/03/08 06:25:22;;;;;;;;;;;;;;;8.33;32.78;100007.53;4480987;31;32734;-66
2022/03/08 06:27:56;;;;;;;;;;;;;;;8.83;31.60;100005.38;4490239;31;33018;-66
2022/03/08 06:30:29;;;;;;;;;;;;;;;8.30;32.92;100010.37;4481390;31;31755;-66
2022/03/08 06:32:58;;;;;;;;;;;;;;;8.48;32.81;100008.44;4481943;31;34230;-66
2022/03/08 06:35:28;;;;;;;;;;;;;;;8.64;33.19;100011.00;4482925;31;34590;-65
2022/03/08 06:38:01;;;;;;;;;;;;;;;8.89;32.35;100017.47;4480635;31;33501;-66
2022/03/08 06:40:34;;;;;;;;;;;;;;;9.04;31.82;100025.34;4483736;31;33139;-66
2022/03/08 06:43:10;;;;;;;;;;;;;;;9.27;31.38;100013.19;4487662;31;36336;-66
2022/03/08 06:45:49;;;;;;;;;;;;;;;9.26;31.18;100021.31;4485618;31;33003;-66
2022/03/08 06:48:27;;;;;;;;;;;;;;;9.24;31.64;100023.22;4481986;31;34477;-65
2022/03/08 06:51:07;;;;;;;;;;;;;;;9.07;31.90;100026.97;4484854;31;33303;-65
2022/03/08 06:53:42;;;;;;;;;;;;;;;9.39;31.55;100029.38;4482513;31;33439;-65
2022/03/08 06:56:23;;;;;;;;;;;;;;;9.65;31.74;100024.97;4483358;31;34200;-65
2022/03/08 06:59:02;;;;;;;;;;;;;;;9.40;32.10;100023.91;4488818;31;33162;-65
2022/03/08 07:02:04;;;;;;;;;;;;;;;9.57;31.61;100022.84;4484703;31;33550;-65
2022/03/08 07:04:37;;;;;;;;;;;;;;;9.98;31.56;100028.09;4484144;31;33141;-67
2022/03/08 07:07:20;;;;;;;;;;;;;;;10.11;32.06;100033.44;4482365;31;34379;-65
2022/03/08 07:09:59;;;;;;;;;;;;;;;10.08;31.21;100035.44;4481388;31;34350;-66
2022/03/08 07:12:40;;;;;;;;;;;;;;;10.55;30.06;100037.56;4471650;31;33514;-68
2022/03/08 07:15:14;;;;;;;;;;;;;;;10.76;29.92;100039.72;4484331;31;32965;-69
2022/03/08 07:17:55;;;;;;;;;;;;;;;10.82;29.59;100040.13;4483497;31;32982;-68
2022/03/08 07:20:34;;;;;;;;;;;;;;;11.43;29.09;100035.69;4482336;31;34609;-65
2022/03/08 07:23:13;;;;;;;;;;;;;;;11.76;28.45;100036.81;4484235;31;32212;-66
2022/03/08 07:25:56;;;;;;;;;;;;;;;11.50;29.21;100036.09;4484636;31;34082;-66
2022/03/08 07:28:34;;;;;;;;;;;;;;;11.76;28.47;100030.59;4488275;31;34317;-66
2022/03/08 07:31:19;;;;;;;;;;;;;;;11.75;28.39;100036.91;4485399;31;34826;-65
2022/03/08 07:33:55;;;;;;;;;;;;;;;11.58;29.61;100038.19;4488773;31;32425;-65
2022/03/08 07:36:26;;;;;;;;;;;;;;;11.64;28.83;100037.72;4485586;31;33914;-66
2022/03/08 07:39:05;;;;;;;;;;;;;;;11.59;29.62;100042.59;4484920;31;34275;-67
2022/03/08 07:41:54;;;;;;;;;;;;;;;11.64;29.52;100038.59;4484543;31;32880;-66
2022/03/08 07:44:30;;;;;;;;;;;;;;;12.34;28.67;100037.78;4483875;31;33178;-66
2022/03/08 07:47:15;;;;;;;;;;;;;;;12.81;27.76;100035.88;4487699;31;34203;-65
2022/03/08 07:49:56;;;;;;;;;;;;;;;12.80;27.26;100034.16;4483638;31;35174;-66
2022/03/08 07:52:38;;;;;;;;;;;;;;;12.88;27.56;100035.41;4486719;31;32965;-66
2022/03/08 07:55:20;;;;;;;;;;;;;;;13.32;26.41;100030.97;4486133;31;33922;-65
2022/03/08 07:58:06;;;;;;;;;;;;;;;13.27;26.42;100034.03;4489879;31;32981;-67
2022/03/08 08:00:43;;;;;;;;;;;;;;;12.53;27.78;100041.72;4484460;31;33019;-65
2022/03/08 08:03:19;;;;;;;;;;;;;;;13.05;26.81;100033.06;4486061;31;32774;-66
2022/03/08 08:05:59;;;;;;;;;;;;;;;13.79;25.65;100032.41;4485204;31;33267;-67
2022/03/08 08:08:45;;;;;;;;;;;;;;;13.77;26.05;100033.53;4486495;31;32993;-67
2022/03/08 08:11:22;;;;;;;;;;;;;;;13.99;25.47;100028.06;4483923;31;34686;-67
2022/03/08 08:14:09;;;;;;;;;;;;;;;13.22;26.34;100034.38;4486869;31;32998;-66
2022/03/08 08:16:45;;;;;;;;;;;;;;;14.54;23.96;100028.75;4491026;31;30965;-67
2022/03/08 08:19:22;;;;;;;;;;;;;;;14.78;24.25;100025.75;4475931;32;32932;-67
2022/03/08 08:22:02;;;;;;;;;;;;;;;14.33;24.63;100031.44;4486847;31;34466;-67
2022/03/08 08:24:46;;;;;;;;;;;;;;;14.49;24.33;100040.87;4483577;31;35133;-67
2022/03/08 08:27:28;;;;;;;;;;;;;;;14.14;25.55;100031.28;4485821;31;32368;-66
2022/03/08 08:30:12;;;;;;;;;;;;;;;14.77;24.06;100028.59;4484471;31;34025;-66
2022/03/08 08:32:55;;;;;;;;;;;;;;;15.00;23.77;100030.09;4488515;31;33091;-67
2022/03/08 08:35:41;;;;;;;;;;;;;;;15.08;24.03;100029.41;4487142;31;34002;-66
2022/03/08 08:38:20;;;;;;;;;;;;;;;14.93;23.80;100026.25;4487243;31;33399;-67
2022/03/08 08:41:02;;;;;;;;;;;;;;;16.23;22.40;100025.16;4488210;31;32961;-67
2022/03/08 08:43:46;;;;;;;;;;;;;;;16.34;22.12;100021.47;4484260;31;33005;-66
2022/03/08 08:46:24;;;;;;;;;;;;;;;17.25;21.58;100021.72;4485203;31;34157;-67
2022/03/08 08:49:08;;;;;;;;;;;;;;;18.95;19.37;100017.13;4487550;31;32782;-68
2022/03/08 08:51:52;;;;;;;;;;;;;;;20.42;17.41;100010.13;4483081;31;33114;-67
2022/03/08 08:54:27;;;;;;;;;;;;;;;20.00;17.85;100016.59;4483443;31;34226;-68
2022/03/08 08:57:04;;;;;;;;;;;;;;;19.53;18.48;100009.03;4484772;31;33880;-65
2022/03/08 08:59:45;;;;;;;;;;;;;;;19.48;18.37;100014.09;4484290;31;33909;-65
2022/03/08 09:02:26;;;;;;;;;;;;;;;18.53;19.19;100013.31;4491396;31;34273;-66
2022/03/08 09:05:09;;;;;;;;;;;;;;;17.85;19.67;100010.41;4490073;31;33111;-65
2022/03/08 09:07:43;;;;;;;;;;;;;;;16.83;21.14;100011.41;4491886;31;33969;-66
2022/03/08 09:10:22;;;;;;;;;;;;;;;16.74;21.16;100001.44;4491583;31;33206;-66
2022/03/08 09:13:01;;;;;;;;;;;;;;;16.45;20.87;100004.25;4490822;31;32866;-65
2022/03/08 09:15:36;;;;;;;;;;;;;;;16.64;20.83;99996.06;4485973;31;33192;-64
2022/03/08 09:18:22;;;;;;;;;;;;;;;14.39;22.65;100005.81;4485470;31;34179;-65
2022/03/08 09:21:03;;;;;;;;;;;;;;;13.19;24.69;99999.72;4485345;31;33440;-65
2022/03/08 09:23:45;;;;;;;;;;;;;;;12.93;24.62;100000.94;4488837;31;32688;-66
2022/03/08 09:26:19;;;;;;;;;;;;;;;14.53;23.05;100001.94;4486067;31;34697;-65
2022/03/08 09:28:57;;;;;;;;;;;;;;;15.02;22.48;100001.16;4488584;31;32841;-65
2022/03/08 09:31:32;;;;;;;;;;;;;;;15.55;21.62;99998.16;4488842;31;31880;-65
2022/03/08 09:34:04;;;;;;;;;;;;;;;15.02;22.00;100000.31;4486397;31;33039;-66
2022/03/08 09:36:34;;;;;;;;;;;;;;;14.96;21.88;100001.72;4472244;31;33519;-68
2022/03/08 09:39:13;;;;;;;;;;;;;;;15.05;21.54;100006.28;4490313;31;33208;-65
2022/03/08 09:41:51;;;;;;;;;;;;;;;15.68;21.91;100000.63;4495769;31;33200;-67
2022/03/08 09:44:28;;;;;;;;;;;;;;;16.04;19.53;99996.34;4489884;31;33914;-67
2022/03/08 09:47:11;;;;;;;;;;;;;;;15.09;20.56;100010.41;4489443;31;33249;-68
2022/03/08 09:49:57;;;;;;;;;;;;;;;14.60;20.49;100003.97;4484856;31;32798;-68
2022/03/08 09:52:41;;;;;;;;;;;;;;;14.62;21.29;99996.59;4486317;31;34335;-68
2022/03/08 09:55:15;;;;;;;;;;;;;;;13.74;21.33;100005.06;4489539;31;32890;-67
2022/03/08 09:58:00;;;;;;;;;;;;;;;14.06;21.27;100013.13;4485148;31;34240;-68
2022/03/08 10:00:35;;;;;;;;;;;;;;;14.27;20.40;100009.56;4488226;31;32868;-67
2022/03/08 10:03:11;;;;;;;;;;;;;;;13.97;20.83;100003.13;4496263;31;32455;-67
2022/03/08 10:06:00;;;;;;;;;;;;;;;14.05;20.31;100008.69;4491244;31;32919;-69
2022/03/08 10:08:34;;;;;;;;;;;;;;;12.93;22.24;100012.53;4487148;31;33198;-66
2022/03/08 10:11:11;;;;;;;;;;;;;;;13.59;21.53;100009.87;4486758;31;34288;-67
2022/03/08 10:13:56;;;;;;;;;;;;;;;14.16;21.11;100003.25;4490546;31;33209;-67
2022/03/08 10:16:42;;;;;;;;;;;;;;;14.67;21.37;100001.62;4486489;31;32848;-66
2022/03/08 10:19:18;;;;;;;;;;;;;;;13.84;22.06;100003.31;4484980;31;34261;-65
2022/03/08 10:22:06;;;;;;;;;;;;;;;13.94;21.57;100009.63;4490355;31;33256;-65
2022/03/08 10:24:45;;;;;;;;;;;;;;;13.18;22.71;100008.72;4494371;31;33364;-63
2022/03/08 10:27:20;;;;;;;;;;;;;;;13.42;24.35;100013.13;4489368;31;32915;-65
2022/03/08 10:30:05;;;;;;;;;;;;;;;13.62;22.03;100015.00;4489142;31;33925;-67
2022/03/08 10:32:59;;;;;;;;;;;;;;;13.81;21.80;100008.94;4488855;31;34267;-65
2022/03/08 10:35:37;;;;;;;;;;;;;;;13.86;21.69;100009.41;4487186;31;32084;-67
2022/03/08 10:38:14;;;;;;;;;;;;;;;14.97;21.01;100013.34;4484256;31;32941;-69
2022/03/08 10:40:49;;;;;;;;;;;;;;;14.49;20.91;100012.09;4487326;31;33215;-65
2022/03/08 10:43:34;;;;;;;;;;;;;;;14.93;20.50;100002.00;4485601;31;32960;-68
2022/03/08 10:46:15;;;;;;;;;;;;;;;15.16;20.04;99999.94;4487518;31;32220;-65
2022/03/08 10:48:59;;;;;;;;;;;;;;;15.11;20.46;99992.25;4487304;31;34128;-68
2022/03/08 10:51:43;;;;;;;;;;;;;;;15.60;19.40;99992.31;4472579;31;33098;-66
2022/03/08 10:54:17;;;;;;;;;;;;;;;14.60;20.13;99995.03;4485707;31;34089;-66
2022/03/08 10:56:49;;;;;;;;;;;;;;;15.58;20.17;99995.19;4486563;31;33198;-66
2022/03/08 10:59:24;;;;;;;;;;;;;;;14.92;19.66;99994.88;4488987;31;33785;-65
2022/03/08 11:02:21;;;;;;;;;;;;;;;15.26;20.00;99994.56;4484250;31;33188;-66
2022/03/08 11:05:07;;;;;;;;;;;;;;;15.74;19.08;99988.41;4487356;31;34112;-65
2022/03/08 11:07:40;;;;;;;;;;;;;;;15.56;19.31;99997.16;4491504;31;33335;-67
2022/03/08 11:10:14;;;;;;;;;;;;;;;15.38;19.35;99996.16;4488571;31;34183;-67
2022/03/08 11:12:56;;;;;;;;;;;;;;;15.59;19.57;99986.09;4486028;31;33061;-67
2022/03/08 11:15:41;;;;;;;;;;;;;;;15.23;19.56;99989.44;4486276;31;32862;-67
2022/03/08 11:18:26;;;;;;;;;;;;;;;15.06;19.97;99985.59;4485336;31;32430;-67
2022/03/08 11:21:06;;;;;;;;;;;;;;;14.21;19.69;99987.56;4477641;31;33789;-68
2022/03/08 11:23:47;;;;;;;;;;;;;;;13.99;20.58;99982.31;4475588;31;33110;-69
2022/03/08 11:26:27;;;;;;;;;;;;;;;12.92;21.42;99983.97;4485052;31;34294;-67
2022/03/08 11:28:59;;;;;;;;;;;;;;;13.86;20.08;99985.19;4473277;31;33041;-69
2022/03/08 11:31:33;;;;;;;;;;;;;;;13.52;20.74;99979.97;4484500;31;32607;-67
2022/03/08 11:34:14;;;;;;;;;;;;;;;12.58;22.65;99973.25;4472904;31;33098;-66
2022/03/08 11:36:58;;;;;;;;;;;;;;;13.57;21.89;99971.50;4471744;32;33896;-68
2022/03/08 11:39:39;;;;;;;;;;;;;;;13.91;20.77;99971.34;4475623;32;33366;-67
2022/03/08 11:42:27;;;;;;;;;;;;;;;14.83;19.82;99971.44;4477241;32;33667;-70
2022/03/08 11:45:04;;;;;;;;;;;;;;;14.73;19.66;99967.88;4473443;32;34554;-66
2022/03/08 11:47:46;;;;;;;;;;;;;;;15.82;19.24;99957.00;4475025;32;33004;-67
2022/03/08 11:50:21;;;;;;;;;;;;;;;16.03;18.93;99954.16;4470970;32;32167;-69
2022/03/08 11:53:08;;;;;;;;;;;;;;;16.32;18.64;99955.94;4473192;32;32750;-67
2022/03/08 11:55:39;;;;;;;;;;;;;;;16.71;18.48;99951.22;4475344;32;34330;-65
2022/03/08 11:58:10;;;;;;;;;;;;;;;16.88;18.58;99951.47;4472502;32;35489;-65
2022/03/08 12:00:46;;;;;;;;;;;;;;;17.09;17.37;99940.41;4475048;32;33330;-64
2022/03/08 12:03:26;;;;;;;;;;;;;;;16.94;17.66;99942.75;4476964;32;34451;-65
2022/03/08 12:06:09;;;;;;;;;;;;;;;17.41;18.14;99938.03;4473519;32;32909;-65
2022/03/08 12:08:57;;;;;;;;;;;;;;;16.93;18.42;99936.50;4475392;32;33260;-64
2022/03/08 12:11:40;;;;;;;;;;;;;;;17.74;17.04;99940.19;4467873;32;33474;-65
2022/03/08 12:14:27;;;;;;;;;;;;;;;17.61;17.22;99937.88;4476940;32;34119;-64
2022/03/08 12:17:17;;;;;;;;;;;;;;;17.08;17.75;99933.28;4473111;32;33054;-64
2022/03/08 12:19:59;;;;;;;;;;;;;;;16.31;18.50;99929.94;4475629;32;34203;-64
2022/03/08 12:22:42;;;;;;;;;;;;;;;16.76;18.98;99926.50;4474134;32;33292;-64
2022/03/08 12:25:18;;;;;;;;;;;;;;;16.77;18.87;99939.00;4472621;32;35237;-66
2022/03/08 12:27:58;;;;;;;;;;;;;;;16.58;20.24;99939.06;4469100;32;33088;-63
2022/03/08 12:30:46;;;;;;;;;;;;;;;17.04;18.67;99927.31;4473068;32;34239;-64
2022/03/08 12:33:24;;;;;;;;;;;;;;;16.89;19.21;99929.72;4473798;32;31836;-63
2022/03/08 12:35:54;;;;;;;;;;;;;;;17.22;18.25;99927.38;4473851;32;33784;-63
2022/03/08 12:38:24;;;;;;;;;;;;;;;17.20;19.86;99932.06;4480589;32;34326;-64
2022/03/08 12:40:52;;;;;;;;;;;;;;;17.31;19.75;99922.91;4472567;32;34849;-64
2022/03/08 12:43:20;;;;;;;;;;;;;;;18.05;17.72;99921.69;4475168;32;33485;-63
2022/03/08 12:45:49;;;;;;;;;;;;;;;17.56;17.90;99922.13;4473155;32;35301;-63
2022/03/08 12:48:21;;;;;;;;;;;;;;;17.08;18.08;99922.47;4478790;32;34250;-65
2022/03/08 12:50:53;;;;;;;;;;;;;;;17.42;17.09;99920.78;4474474;32;34068;-63
2022/03/08 12:53:25;;;;;;;;;;;;;;;17.17;17.59;99903.50;4476323;32;33467;-63
2022/03/08 12:55:57;;;;;;;;;;;;;;;16.75;19.12;99908.56;4474331;32;34867;-64
2022/03/08 12:58:31;;;;;;;;;;;;;;;17.39;17.20;99896.75;4480889;32;34319;-64
2022/03/08 13:01:03;;;;;;;;;;;;;;;17.35;17.27;99891.81;4478144;32;33000;-63
2022/03/08 13:03:34;;;;;;;;;;;;;;;17.52;17.50;99887.41;4477735;31;34103;-68
2022/03/08 13:06:05;;;;;;;;;;;;;;;17.05;17.98;99893.06;4473952;32;33912;-70
2022/03/08 13:08:46;;;;;;;;;;;;;;;17.05;18.32;99887.63;4472281;32;31990;-67
2022/03/08 13:11:25;;;;;;;;;;;;;;;17.45;17.80;99892.59;4475053;32;33927;-65
2022/03/08 13:14:12;;;;;;;;;;;;;;;17.55;17.83;99890.62;4468234;32;33207;-68
2022/03/08 13:16:50;;;;;;;;;;;;;;;17.52;17.87;99884.69;4471637;32;33014;-66
2022/03/08 13:19:36;;;;;;;;;;;;;;;17.91;17.09;99894.19;4472576;32;33466;-65
2022/03/08 13:22:13;;;;;;;;;;;;;;;16.49;20.12;99893.00;4475570;32;32876;-65
2022/03/08 13:25:10;;;;;;;;;;;;;;;16.28;19.66;99895.97;4472390;32;32284;-65
2022/03/08 13:27:58;;;;;;;;;;;;;;;17.21;18.21;99877.84;4472197;32;32588;-65